Time;durP1;ratioP1;P1;durP2;ratioP2;P2;SDS_P1;SDS_P2;PMS_P1;PMS_P2;Temp;Humidity;BMP_temperature;BMP_pressure;BME280_temperature;BME280_humidity;BME280_pressure;Samples;Min_cycle;Max_cycle;Signal;HPM_P1;HPM_P2
2022/02/28 00:01:24;;;;;;;53.92;26.73;;;-0.70;99.90;;;;;;5059293;28;20277;-49
2022/02/28 00:03:55;;;;;;;51.60;26.13;;;-0.80;99.90;;;;;;5059985;28;20274;-51
2022/02/28 00:06:26;;;;;;;57.70;29.23;;;-0.80;99.90;;;;;;5059385;28;20218;-50
2022/02/28 00:08:54;;;;;;;52.45;27.83;;;-0.90;99.90;;;;;;5059940;28;20196;-49
2022/02/28 00:11:21;;;;;;;56.50;27.92;;;-0.90;99.90;;;;;;5058949;28;20245;-51
2022/02/28 00:13:49;;;;;;;57.90;29.85;;;-0.80;99.90;;;;;;5059597;28;20226;-51
2022/02/28 00:16:16;;;;;;;48.58;27.70;;;-0.80;99.90;;;;;;5059390;28;20195;-50
2022/02/28 00:18:44;;;;;;;63.30;30.13;;;-0.80;99.90;;;;;;5059809;28;20196;-50
2022/02/28 00:21:11;;;;;;;61.97;30.98;;;-0.90;99.90;;;;;;5059501;28;20228;-49
2022/02/28 00:23:39;;;;;;;52.20;27.95;;;-0.80;99.90;;;;;;5059025;28;20207;-48
2022/02/28 00:26:06;;;;;;;72.90;32.90;;;-0.80;99.90;;;;;;5059515;28;20207;-49
2022/02/28 00:28:33;;;;;;;56.80;29.25;;;-0.60;99.90;;;;;;5059192;28;20466;-54
2022/02/28 00:31:00;;;;;;;57.67;31.17;;;-0.60;99.90;;;;;;5059265;28;20273;-49
2022/02/28 00:33:28;;;;;;;68.00;31.27;;;-0.70;99.90;;;;;;5058987;28;20273;-50
2022/02/28 00:35:56;;;;;;;60.13;30.42;;;-0.70;99.90;;;;;;5059449;28;20249;-50
2022/02/28 00:38:24;;;;;;;53.78;30.27;;;-0.70;99.90;;;;;;5059256;28;20196;-50
2022/02/28 00:40:51;;;;;;;62.53;29.25;;;-0.70;99.90;;;;;;5059238;28;20429;-51
2022/02/28 00:43:19;;;;;;;60.67;31.17;;;-0.70;99.90;;;;;;5058957;28;20507;-50
2022/02/28 00:45:46;;;;;;;69.00;30.73;;;-0.80;99.90;;;;;;5058381;28;20426;-47
2022/02/28 00:48:13;;;;;;;62.30;30.80;;;-0.70;99.90;;;;;;5059074;28;20403;-50
2022/02/28 00:50:40;;;;;;;56.80;30.10;;;-0.80;99.90;;;;;;5059340;28;20227;-49
2022/02/28 00:53:08;;;;;;;64.55;28.33;;;-0.80;99.90;;;;;;5058862;28;20231;-46
2022/02/28 00:55:35;;;;;;;65.50;30.30;;;-1.00;99.90;;;;;;5059237;28;20233;-46
2022/02/28 00:58:03;;;;;;;67.55;31.25;;;-0.90;99.90;;;;;;5059048;28;20234;-46
2022/02/28 01:00:31;;;;;;;60.95;28.70;;;-1.00;99.90;;;;;;5059151;28;20207;-49
2022/02/28 01:02:58;;;;;;;66.10;31.00;;;-1.00;99.90;;;;;;5058735;28;20506;-49
2022/02/28 01:05:26;;;;;;;66.03;30.13;;;-1.00;99.90;;;;;;5059136;28;20226;-48
2022/02/28 01:07:54;;;;;;;69.47;32.38;;;-0.90;99.90;;;;;;5058781;28;20237;-49
2022/02/28 01:10:22;;;;;;;74.03;33.38;;;-1.00;99.90;;;;;;5058583;28;20534;-51
2022/02/28 01:12:51;;;;;;;61.70;31.35;;;-1.10;99.90;;;;;;5058764;28;20216;-52
2022/02/28 01:15:20;;;;;;;68.93;31.05;;;-1.00;99.90;;;;;;5058985;28;20206;-48
2022/02/28 01:17:48;;;;;;;72.90;33.13;;;-1.10;99.90;;;;;;5058723;28;20237;-48
2022/02/28 01:20:15;;;;;;;73.53;33.25;;;-1.10;99.90;;;;;;5058669;28;20200;-53
2022/02/28 01:22:42;;;;;;;61.40;29.85;;;-1.20;99.90;;;;;;5058515;28;20546;-50
2022/02/28 01:25:11;;;;;;;63.05;32.40;;;-1.20;99.90;;;;;;5058675;28;20200;-49
2022/02/28 01:27:38;;;;;;;55.38;29.45;;;-1.00;99.90;;;;;;5058970;28;20238;-48
2022/02/28 01:30:07;;;;;;;69.03;33.95;;;-1.20;99.90;;;;;;5058408;28;20227;-49
2022/02/28 01:32:34;;;;;;;70.03;30.58;;;-1.00;99.90;;;;;;5058815;28;20216;-51
2022/02/28 01:35:02;;;;;;;65.55;30.85;;;-1.00;99.90;;;;;;5058659;28;20257;-50
2022/02/28 01:37:29;;;;;;;63.00;31.38;;;-1.30;99.90;;;;;;5062664;28;20203;-51
2022/02/28 01:39:57;;;;;;;59.70;28.88;;;-1.20;99.90;;;;;;5062419;28;20207;-52
2022/02/28 01:42:25;;;;;;;59.92;29.67;;;-1.30;99.90;;;;;;5062221;28;20265;-51
2022/02/28 01:44:55;;;;;;;68.60;33.80;;;-1.30;99.90;;;;;;5062469;28;20206;-49
2022/02/28 01:47:22;;;;;;;63.97;31.13;;;-1.40;99.90;;;;;;5062103;28;20205;-49
2022/02/28 01:49:49;;;;;;;67.13;31.75;;;-1.20;99.90;;;;;;5062098;28;20223;-49
2022/02/28 01:52:17;;;;;;;60.90;30.38;;;-1.20;99.90;;;;;;5061728;28;20561;-52
2022/02/28 01:54:47;;;;;;;69.90;32.90;;;-1.20;99.90;;;;;;5062523;28;20203;-48
2022/02/28 01:57:14;;;;;;;55.60;30.80;;;-1.30;99.90;;;;;;5062047;28;20353;-48
2022/02/28 01:59:41;;;;;;;66.68;34.90;;;-1.40;99.90;;;;;;5062353;28;20571;-50
2022/02/28 02:02:09;;;;;;;75.47;29.60;;;-1.30;99.90;;;;;;5061518;28;20223;-48
2022/02/28 02:04:36;;;;;;;66.65;31.48;;;-1.40;99.90;;;;;;5062138;28;20246;-51
2022/02/28 02:07:04;;;;;;;63.92;31.15;;;-1.40;99.90;;;;;;5061915;28;20222;-54
2022/02/28 02:09:34;;;;;;;64.97;33.38;;;-1.40;99.90;;;;;;5061035;28;20246;-52
2022/02/28 02:12:06;;;;;;;61.17;30.20;;;-1.60;99.90;;;;;;5044800;28;20286;-54
2022/02/28 02:14:34;;;;;;;57.03;30.70;;;-1.60;99.90;;;;;;5056491;28;20257;-53
2022/02/28 02:17:01;;;;;;;63.63;32.20;;;-1.50;99.90;;;;;;5061643;28;20241;-52
2022/02/28 02:19:28;;;;;;;66.15;29.67;;;-1.60;99.90;;;;;;5061596;28;20188;-51
2022/02/28 02:21:56;;;;;;;66.00;32.15;;;-1.60;99.90;;;;;;5061755;28;20269;-47
2022/02/28 02:24:22;;;;;;;57.25;26.73;;;-1.40;99.90;;;;;;5061373;28;20203;-49
2022/02/28 02:26:50;;;;;;;69.63;30.45;;;-1.40;99.90;;;;;;5061839;28;20199;-48
2022/02/28 02:29:17;;;;;;;53.97;31.33;;;-1.50;99.90;;;;;;5061514;28;20199;-46
2022/02/28 02:31:44;;;;;;;60.70;29.70;;;-1.50;99.90;;;;;;5061474;28;20518;-49
2022/02/28 02:34:12;;;;;;;58.55;30.58;;;-1.60;99.90;;;;;;5061300;28;20196;-47
2022/02/28 02:36:42;;;;;;;51.60;29.05;;;-1.60;99.90;;;;;;5061365;28;20198;-47
2022/02/28 02:39:11;;;;;;;49.35;27.80;;;-1.60;99.90;;;;;;5061256;28;20514;-49
2022/02/28 02:41:38;;;;;;;56.45;29.58;;;-1.70;99.90;;;;;;5061130;28;20223;-46
2022/02/28 02:44:06;;;;;;;53.55;27.52;;;-1.60;99.90;;;;;;5061441;28;20418;-49
2022/02/28 02:46:44;;;;;;;57.10;30.10;;;-1.60;99.90;;;;;;5061268;28;20210;-50
2022/02/28 02:49:14;;;;;;;52.33;28.08;;;-1.50;99.90;;;;;;5061317;28;20219;-47
2022/02/28 02:51:43;;;;;;;53.13;27.17;;;-1.60;99.90;;;;;;5061244;28;20223;-48
2022/02/28 02:54:10;;;;;;;58.97;28.05;;;-1.60;99.90;;;;;;5060711;28;20195;-48
2022/02/28 02:56:38;;;;;;;55.88;28.27;;;-1.50;99.90;;;;;;5061381;28;20442;-52
2022/02/28 02:59:05;;;;;;;44.92;27.45;;;-1.50;99.90;;;;;;5060683;28;20553;-51
2022/02/28 03:01:33;;;;;;;56.90;28.00;;;-1.50;99.90;;;;;;5061249;28;20219;-46
2022/02/28 03:04:01;;;;;;;63.88;29.05;;;-1.50;99.90;;;;;;5060713;28;20199;-49
2022/02/28 03:06:28;;;;;;;49.42;28.38;;;-1.40;99.90;;;;;;5061105;28;20199;-48
2022/02/28 03:08:55;;;;;;;54.05;28.48;;;-1.50;99.90;;;;;;5060450;28;20204;-50
2022/02/28 03:11:23;;;;;;;59.58;31.20;;;-1.60;99.90;;;;;;5060719;28;20227;-50
2022/02/28 03:13:50;;;;;;;58.38;30.20;;;-1.50;99.90;;;;;;5061032;28;20200;-46
2022/02/28 03:16:17;;;;;;;48.75;26.70;;;-1.70;99.90;;;;;;5060838;28;20199;-47
2022/02/28 03:18:45;;;;;;;63.50;30.52;;;-1.80;99.90;;;;;;5060834;28;20450;-48
2022/02/28 03:21:12;;;;;;;61.40;32.15;;;-1.90;99.90;;;;;;5060322;28;20224;-49
2022/02/28 03:23:39;;;;;;;56.80;27.73;;;-1.70;99.90;;;;;;5060645;28;20238;-50
2022/02/28 03:26:07;;;;;;;63.83;30.50;;;-1.70;99.90;;;;;;5060669;28;20271;-49
2022/02/28 03:28:34;;;;;;;52.95;30.92;;;-1.80;99.90;;;;;;5061163;28;20204;-51
2022/02/28 03:31:02;;;;;;;66.70;28.98;;;-1.80;99.90;;;;;;5060100;28;20540;-50
2022/02/28 03:33:29;;;;;;;58.72;30.15;;;-1.70;99.90;;;;;;5060451;28;20406;-50
2022/02/28 03:35:57;;;;;;;48.38;25.88;;;-1.70;99.90;;;;;;5060236;28;20207;-51
2022/02/28 03:38:24;;;;;;;54.90;31.60;;;-1.70;99.90;;;;;;5059895;28;20208;-47
2022/02/28 03:40:51;;;;;;;54.05;30.05;;;-1.50;99.90;;;;;;5060326;28;20263;-52
2022/02/28 03:43:19;;;;;;;57.00;29.65;;;-1.70;99.90;;;;;;5059772;28;20207;-50
2022/02/28 03:45:46;;;;;;;54.22;29.80;;;-1.70;99.90;;;;;;5059002;28;20223;-47
2022/02/28 03:48:14;;;;;;;44.63;27.40;;;-1.70;99.90;;;;;;5059403;28;20241;-50
2022/02/28 03:50:41;;;;;;;47.05;26.45;;;-1.80;99.90;;;;;;5059740;28;20233;-46
2022/02/28 03:53:08;;;;;;;56.10;28.67;;;-1.90;99.90;;;;;;5059799;28;20202;-48
2022/02/28 03:55:35;;;;;;;55.90;30.25;;;-1.90;99.90;;;;;;5059958;28;20204;-48
2022/02/28 03:58:02;;;;;;;46.55;28.75;;;-1.80;99.90;;;;;;5059564;28;20259;-47
2022/02/28 04:00:30;;;;;;;55.45;28.60;;;-1.80;99.90;;;;;;5059255;28;20502;-46
2022/02/28 04:02:57;;;;;;;62.70;29.70;;;-1.90;99.90;;;;;;5059705;28;20552;-47
2022/02/28 04:05:24;;;;;;;53.55;28.48;;;-2.00;99.90;;;;;;5059786;28;20215;-45
2022/02/28 04:07:51;;;;;;;49.55;27.05;;;-1.90;99.90;;;;;;5060632;28;20211;-49
2022/02/28 04:10:18;;;;;;;55.40;30.23;;;-2.00;99.90;;;;;;5059361;28;20219;-48
2022/02/28 04:12:46;;;;;;;48.22;25.95;;;-2.00;99.90;;;;;;5059273;28;20234;-48
2022/02/28 04:15:13;;;;;;;67.93;26.83;;;-1.80;99.90;;;;;;5059646;28;20629;-48
2022/02/28 04:17:41;;;;;;;54.05;29.20;;;-1.90;99.90;;;;;;5059479;28;20201;-45
2022/02/28 04:20:08;;;;;;;41.95;24.50;;;-1.90;99.90;;;;;;5058297;28;20508;-52
2022/02/28 04:22:35;;;;;;;57.08;29.00;;;-2.10;99.90;;;;;;5059349;28;20211;-44
2022/02/28 04:25:03;;;;;;;47.35;26.02;;;-2.20;99.90;;;;;;5059564;28;20195;-45
2022/02/28 04:27:30;;;;;;;54.00;28.13;;;-2.10;99.90;;;;;;5058960;28;20541;-45
2022/02/28 04:29:57;;;;;;;44.65;25.95;;;-2.10;99.90;;;;;;5059933;28;20218;-47
2022/02/28 04:32:24;;;;;;;43.72;26.73;;;-2.10;99.90;;;;;;5058600;28;20296;-47
2022/02/28 04:34:52;;;;;;;58.10;27.23;;;-2.00;99.90;;;;;;5059129;28;20200;-47
2022/02/28 04:37:19;;;;;;;47.85;27.13;;;-2.00;99.90;;;;;;5059110;28;20195;-46
2022/02/28 04:39:46;;;;;;;42.22;26.40;;;-2.00;99.90;;;;;;5059246;28;20218;-43
2022/02/28 04:42:13;;;;;;;54.90;28.00;;;-2.10;99.90;;;;;;5059060;28;20226;-48
2022/02/28 04:44:40;;;;;;;48.55;29.40;;;-2.20;99.90;;;;;;5059092;28;20201;-49
2022/02/28 04:47:08;;;;;;;51.63;28.05;;;-2.10;99.90;;;;;;5059733;28;20199;-47
2022/02/28 04:49:35;;;;;;;52.63;26.92;;;-2.00;99.90;;;;;;5059488;28;20207;-44
2022/02/28 04:52:02;;;;;;;51.88;30.10;;;-1.90;99.90;;;;;;5059068;28;20545;-48
2022/02/28 04:54:30;;;;;;;56.65;32.15;;;-2.00;99.90;;;;;;5059046;28;20196;-45
2022/02/28 04:56:57;;;;;;;43.60;27.45;;;-2.10;99.90;;;;;;5059174;28;20534;-47
2022/02/28 04:59:24;;;;;;;41.92;26.10;;;-2.20;99.90;;;;;;5058653;28;20199;-48
2022/02/28 05:01:51;;;;;;;47.30;29.33;;;-2.40;99.90;;;;;;5044866;28;20228;-49
2022/02/28 05:04:18;;;;;;;46.05;26.08;;;-2.40;99.90;;;;;;5050390;28;20286;-45
2022/02/28 05:06:45;;;;;;;47.40;26.67;;;-2.30;99.90;;;;;;5059017;28;20245;-43
2022/02/28 05:09:12;;;;;;;44.28;27.88;;;-2.30;99.90;;;;;;5046809;28;20197;-43
2022/02/28 05:11:40;;;;;;;45.60;28.13;;;-2.40;99.90;;;;;;5041779;28;20389;-47
2022/02/28 05:14:09;;;;;;;47.65;26.17;;;-2.20;99.90;;;;;;5043457;28;20196;-43
2022/02/28 05:16:36;;;;;;;46.53;25.77;;;-2.10;99.90;;;;;;5043486;28;20203;-45
2022/02/28 05:19:04;;;;;;;51.40;29.13;;;-2.20;99.90;;;;;;5042698;28;20196;-47
2022/02/28 05:21:31;;;;;;;59.75;30.05;;;-2.20;99.90;;;;;;5048989;28;20226;-43
2022/02/28 05:23:59;;;;;;;58.67;28.55;;;-2.20;99.90;;;;;;5053823;28;20207;-47
2022/02/28 05:26:26;;;;;;;52.10;26.40;;;-2.30;99.90;;;;;;5062581;28;20191;-44
2022/02/28 05:28:54;;;;;;;50.75;27.88;;;-2.20;99.90;;;;;;5062296;28;20208;-44
2022/02/28 05:31:21;;;;;;;49.13;26.40;;;-2.30;99.90;;;;;;5062212;28;20449;-43
2022/02/28 05:33:48;;;;;;;50.30;29.67;;;-2.20;99.90;;;;;;5062212;28;20211;-43
2022/02/28 05:36:15;;;;;;;49.13;27.15;;;-2.40;99.90;;;;;;5060863;28;20418;-47
2022/02/28 05:38:42;;;;;;;49.17;27.13;;;-2.20;99.90;;;;;;5062278;28;20195;-45
2022/02/28 05:41:10;;;;;;;55.55;29.83;;;-2.10;99.90;;;;;;5058120;28;20265;-48
2022/02/28 05:43:37;;;;;;;50.17;28.60;;;-2.20;99.90;;;;;;5061653;28;20578;-43
2022/02/28 05:46:09;;;;;;;67.35;28.58;;;-2.40;99.90;;;;;;5060946;28;20207;-43
2022/02/28 05:48:36;;;;;;;54.17;28.63;;;-2.30;99.90;;;;;;5055456;28;20211;-46
2022/02/28 05:51:03;;;;;;;54.60;28.98;;;-2.40;99.90;;;;;;5053533;28;20232;-43
2022/02/28 05:53:31;;;;;;;58.17;30.65;;;-2.40;99.90;;;;;;5061459;28;20537;-44
2022/02/28 05:55:58;;;;;;;56.92;28.50;;;-2.30;99.90;;;;;;5061049;28;20243;-44
2022/02/28 05:58:25;;;;;;;58.03;27.48;;;-2.30;99.90;;;;;;5061482;28;20310;-44
2022/02/28 06:00:52;;;;;;;46.83;27.73;;;-2.30;99.90;;;;;;5053433;28;20212;-43
2022/02/28 06:03:20;;;;;;;55.28;28.63;;;-2.20;99.90;;;;;;5061514;28;20231;-44
2022/02/28 06:05:47;;;;;;;55.47;32.30;;;-2.00;99.90;;;;;;5061817;28;20203;-49
2022/02/28 06:08:14;;;;;;;46.58;27.67;;;-2.10;99.90;;;;;;5060799;28;20239;-46
2022/02/28 06:10:42;;;;;;;52.45;28.15;;;-2.10;99.90;;;;;;5061326;28;20293;-47
2022/02/28 06:13:09;;;;;;;49.40;27.75;;;-2.10;99.90;;;;;;5061317;28;20196;-43
2022/02/28 06:15:41;;;;;;;46.95;27.77;;;-2.00;99.90;;;;;;5061959;28;20437;-42
2022/02/28 06:18:09;;;;;;;50.95;30.02;;;-1.90;99.90;;;;;;5061529;28;20398;-45
2022/02/28 06:20:41;;;;;;;52.90;29.42;;;-2.10;99.90;;;;;;5062075;28;20217;-42
2022/02/28 06:23:14;;;;;;;55.03;28.52;;;-1.90;99.90;;;;;;5061166;28;20438;-42
2022/02/28 06:25:43;;;;;;;50.55;29.83;;;-1.90;99.90;;;;;;5057163;28;20511;-44
2022/02/28 06:28:11;;;;;;;54.67;32.35;;;-1.80;99.90;;;;;;5050471;28;20279;-41
2022/02/28 06:30:40;;;;;;;52.08;32.75;;;-1.30;99.90;;;;;;5050971;28;20204;-46
2022/02/28 06:33:08;;;;;;;53.22;29.13;;;-0.60;99.90;;;;;;5041541;28;20196;-43
2022/02/28 06:35:35;;;;;;;38.40;24.08;;;-0.20;99.90;;;;;;5040998;28;20203;-42
2022/02/28 06:38:02;;;;;;;38.88;21.20;;;-0.30;99.90;;;;;;5040595;28;20204;-47
2022/02/28 06:40:29;;;;;;;30.30;18.65;;;-0.50;99.90;;;;;;5046745;28;20222;-44
2022/02/28 06:42:56;;;;;;;44.47;23.25;;;-0.70;99.90;;;;;;5052222;28;20223;-44
2022/02/28 06:45:25;;;;;;;36.53;20.42;;;-0.50;99.90;;;;;;5060314;28;20195;-47
2022/02/28 06:47:52;;;;;;;30.67;18.90;;;-0.10;99.90;;;;;;5060989;28;20507;-45
2022/02/28 06:50:19;;;;;;;32.80;17.27;;;0.10;99.90;;;;;;5060653;28;20242;-40
2022/02/28 06:52:46;;;;;;;37.17;18.40;;;0.10;99.90;;;;;;5060421;28;20231;-42
2022/02/28 06:55:14;;;;;;;30.33;18.90;;;0.00;99.90;;;;;;5059194;28;20537;-45
2022/02/28 06:57:41;;;;;;;31.20;18.70;;;0.10;99.90;;;;;;5045733;28;20208;-47
2022/02/28 07:00:08;;;;;;;29.52;14.95;;;0.40;99.90;;;;;;5048654;28;20196;-42
2022/02/28 07:02:35;;;;;;;22.50;15.85;;;0.30;99.90;;;;;;5045435;28;20220;-46
2022/02/28 07:05:03;;;;;;;22.23;14.77;;;0.30;99.90;;;;;;5047825;28;20204;-46
2022/02/28 07:07:31;;;;;;;23.33;14.80;;;0.20;99.90;;;;;;5044576;28;20223;-42
2022/02/28 07:09:59;;;;;;;25.00;15.70;;;0.40;99.90;;;;;;5046069;28;20214;-43
2022/02/28 07:12:26;;;;;;;29.70;14.25;;;1.00;99.90;;;;;;5041417;28;20267;-46
2022/02/28 07:14:53;;;;;;;23.42;16.55;;;1.30;99.90;;;;;;5045546;28;20196;-43
2022/02/28 07:17:21;;;;;;;18.80;13.00;;;1.50;99.90;;;;;;5045203;28;20291;-45
2022/02/28 07:19:48;;;;;;;22.80;13.10;;;1.50;99.90;;;;;;5045433;28;20218;-44
2022/02/28 07:22:15;;;;;;;29.67;14.00;;;1.50;99.90;;;;;;5052496;28;20231;-44
2022/02/28 07:24:42;;;;;;;21.50;12.52;;;1.40;99.90;;;;;;5044671;28;20226;-44
2022/02/28 07:27:09;;;;;;;27.58;15.50;;;1.40;99.90;;;;;;5038565;28;20204;-48
2022/02/28 07:29:36;;;;;;;24.88;12.63;;;1.50;99.90;;;;;;5039767;28;20531;-45
2022/02/28 07:32:04;;;;;;;19.67;12.35;;;1.40;99.90;;;;;;5039826;28;20248;-44
2022/02/28 07:34:31;;;;;;;20.48;13.02;;;1.30;99.90;;;;;;5039290;28;20251;-44
2022/02/28 07:36:58;;;;;;;21.05;11.90;;;1.60;99.90;;;;;;5039866;28;20204;-48
2022/02/28 07:39:26;;;;;;;21.55;11.02;;;1.70;99.90;;;;;;5040122;28;20251;-49
2022/02/28 07:41:56;;;;;;;24.60;11.95;;;2.30;99.90;;;;;;5039486;28;20220;-44
2022/02/28 07:44:23;;;;;;;17.92;12.07;;;3.10;99.90;;;;;;5040102;28;20256;-42
2022/02/28 07:46:50;;;;;;;20.40;12.05;;;3.10;99.90;;;;;;5039662;28;20204;-43
2022/02/28 07:49:18;;;;;;;21.95;13.15;;;4.20;99.90;;;;;;5039585;28;20479;-42
2022/02/28 07:51:45;;;;;;;20.23;12.73;;;4.80;99.90;;;;;;5039229;28;20231;-45
2022/02/28 07:54:12;;;;;;;17.35;12.85;;;6.40;99.90;;;;;;5039368;28;20212;-43
2022/02/28 07:56:39;;;;;;;15.60;10.63;;;7.30;99.90;;;;;;5039886;28;20457;-49
2022/02/28 07:59:06;;;;;;;14.70;10.38;;;8.00;99.90;;;;;;5039188;28;20196;-46
2022/02/28 08:01:34;;;;;;;15.05;10.25;;;8.30;99.90;;;;;;5039403;28;20259;-43
2022/02/28 08:04:01;;;;;;;13.85;9.73;;;7.80;99.90;;;;;;5039406;28;20220;-47
2022/02/28 08:06:28;;;;;;;21.15;12.05;;;8.50;99.90;;;;;;5038603;28;20200;-48
2022/02/28 08:08:55;;;;;;;15.27;12.43;;;7.80;99.90;;;;;;5039028;28;20246;-45
2022/02/28 08:11:22;;;;;;;21.05;10.32;;;8.20;99.90;;;;;;5039354;28;20303;-48
2022/02/28 08:13:49;;;;;;;12.18;9.80;;;9.20;99.90;;;;;;5039363;28;20369;-46
2022/02/28 08:16:16;;;;;;;20.10;10.73;;;9.40;99.90;;;;;;5039382;28;20420;-51
2022/02/28 08:18:45;;;;;;;15.00;10.57;;;10.30;99.90;;;;;;5039754;28;20213;-43
2022/02/28 08:21:12;;;;;;;16.88;9.07;;;10.70;99.90;;;;;;5039280;28;20280;-46
2022/02/28 08:23:39;;;;;;;11.75;8.52;;;9.00;99.90;;;;;;5039259;28;20217;-49
2022/02/28 08:26:07;;;;;;;14.32;9.48;;;8.30;99.90;;;;;;5038768;28;20205;-47
2022/02/28 08:28:35;;;;;;;12.77;10.70;;;8.40;99.90;;;;;;5039307;28;20496;-46
2022/02/28 08:31:06;;;;;;;17.25;11.05;;;8.60;99.90;;;;;;5038753;28;20209;-45
2022/02/28 08:33:33;;;;;;;11.98;9.55;;;8.00;99.90;;;;;;5039483;28;20218;-45
2022/02/28 08:36:01;;;;;;;12.80;9.52;;;7.60;99.90;;;;;;5038818;28;20248;-49
2022/02/28 08:38:28;;;;;;;12.32;9.35;;;8.30;99.90;;;;;;5038585;28;20216;-47
2022/02/28 08:40:55;;;;;;;9.18;8.15;;;7.90;99.90;;;;;;5052239;28;20498;-45
2022/02/28 08:43:22;;;;;;;13.25;8.75;;;7.50;99.90;;;;;;5052187;28;20514;-46
2022/02/28 08:45:50;;;;;;;16.75;9.35;;;7.50;99.90;;;;;;5059549;28;20210;-46
2022/02/28 08:48:17;;;;;;;16.80;10.60;;;7.80;99.90;;;;;;5058332;28;20204;-48
2022/02/28 08:50:45;;;;;;;17.63;10.00;;;8.90;99.90;;;;;;5050632;28;20209;-52
2022/02/28 08:53:12;;;;;;;11.80;8.65;;;8.70;99.90;;;;;;5038130;28;20229;-44
2022/02/28 08:55:40;;;;;;;17.27;9.15;;;9.20;99.90;;;;;;5039099;28;20197;-48
2022/02/28 08:58:07;;;;;;;18.13;9.20;;;8.60;99.90;;;;;;5038771;28;20196;-48
2022/02/28 09:00:34;;;;;;;11.05;8.10;;;8.70;99.90;;;;;;5039842;28;20199;-45
2022/02/28 09:03:06;;;;;;;11.18;8.52;;;8.10;99.90;;;;;;5038979;28;20204;-47
2022/02/28 09:05:35;;;;;;;15.65;9.95;;;7.80;99.90;;;;;;5039147;28;20200;-49
2022/02/28 09:08:03;;;;;;;16.20;9.80;;;8.10;99.90;;;;;;5038808;28;20201;-52
2022/02/28 09:10:31;;;;;;;11.68;7.82;;;8.70;99.90;;;;;;5038835;28;20272;-47
2022/02/28 09:13:04;;;;;;;8.77;7.38;;;8.30;99.90;;;;;;5038233;28;20247;-47
2022/02/28 09:15:35;;;;;;;10.05;6.60;;;8.30;99.90;;;;;;5039073;28;20235;-47
2022/02/28 09:18:07;;;;;;;9.15;7.28;;;8.00;99.90;;;;;;5038891;28;20196;-45
2022/02/28 09:20:36;;;;;;;12.05;7.10;;;8.00;99.90;;;;;;5038448;28;20200;-45
2022/02/28 09:23:04;;;;;;;10.45;7.85;;;8.10;99.90;;;;;;5038595;28;20222;-48
2022/02/28 09:25:31;;;;;;;12.98;8.60;;;8.10;99.90;;;;;;5038612;28;20200;-47
2022/02/28 09:27:58;;;;;;;16.42;7.43;;;7.60;99.90;;;;;;5038650;28;20200;-49
2022/02/28 09:30:26;;;;;;;10.38;7.00;;;7.30;99.90;;;;;;5038231;28;20246;-45
2022/02/28 09:32:54;;;;;;;9.55;5.45;;;6.50;99.90;;;;;;5038819;28;20404;-46
2022/02/28 09:35:21;;;;;;;6.47;4.97;;;5.50;99.90;;;;;;5038376;28;20531;-44
2022/02/28 09:37:48;;;;;;;10.68;7.63;;;4.50;99.90;;;;;;5038286;28;20506;-46
2022/02/28 09:40:15;;;;;;;8.57;5.15;;;3.80;99.90;;;;;;5038482;28;20436;-48
2022/02/28 09:42:45;;;;;;;7.88;5.30;;;3.70;99.90;;;;;;5038177;28;20595;-46
2022/02/28 09:45:16;;;;;;;10.15;5.90;;;3.80;99.90;;;;;;5038246;28;20199;-46
2022/02/28 09:47:43;;;;;;;7.40;5.97;;;3.70;99.90;;;;;;5038401;28;20248;-50
2022/02/28 09:50:10;;;;;;;11.20;5.22;;;3.70;99.90;;;;;;5038270;28;20257;-45
2022/02/28 09:52:37;;;;;;;9.35;5.90;;;3.60;99.90;;;;;;5038533;28;20494;-49
2022/02/28 09:55:06;;;;;;;6.95;4.63;;;3.40;99.90;;;;;;5038686;28;20207;-44
2022/02/28 09:57:34;;;;;;;6.70;4.78;;;3.50;99.90;;;;;;5040921;28;20301;-50
2022/02/28 10:00:05;;;;;;;6.38;4.75;;;3.30;99.90;;;;;;5042263;28;20528;-45
2022/02/28 10:02:32;;;;;;;8.50;4.43;;;3.30;99.90;;;;;;5041752;28;20222;-48
2022/02/28 10:05:01;;;;;;;7.18;4.70;;;3.40;99.90;;;;;;5041525;28;20257;-48
2022/02/28 10:07:28;;;;;;;9.48;4.78;;;3.60;99.90;;;;;;5041845;28;20201;-46
2022/02/28 10:10:09;;;;;;;9.98;4.63;;;3.60;99.90;;;;;;5041184;28;20256;-45
2022/02/28 10:12:38;;;;;;;7.82;5.15;;;3.60;99.90;;;;;;5041945;28;20325;-47
2022/02/28 10:15:17;;;;;;;9.10;3.90;;;3.50;99.90;;;;;;5041729;28;20198;-48
2022/02/28 10:17:57;;;;;;;6.57;4.70;;;3.60;99.90;;;;;;5041963;28;20210;-46
2022/02/28 10:20:29;;;;;;;8.00;3.25;;;3.60;99.90;;;;;;5041270;28;20197;-47
2022/02/28 10:22:58;;;;;;;3.22;1.77;;;3.50;99.90;;;;;;5042257;28;20428;-45
2022/02/28 10:25:30;;;;;;;2.15;1.77;;;3.50;99.90;;;;;;5041684;28;20240;-45
2022/02/28 10:28:29;;;;;;;3.08;2.78;;;3.50;99.90;;;;;;5041830;28;20213;-47
2022/02/28 10:31:00;;;;;;;6.65;3.95;;;3.50;99.90;;;;;;5050604;28;20318;-49
2022/02/28 10:33:41;;;;;;;8.93;4.53;;;3.50;99.90;;;;;;5041758;28;20226;-48
2022/02/28 10:36:19;;;;;;;4.75;3.80;;;3.30;99.90;;;;;;5040954;28;20269;-46
2022/02/28 10:38:49;;;;;;;3.83;2.78;;;3.50;99.90;;;;;;5041396;28;20321;-49
2022/02/28 10:41:28;;;;;;;4.65;3.55;;;3.70;99.90;;;;;;5040743;28;20233;-47
2022/02/28 10:43:58;;;;;;;8.68;4.22;;;3.60;99.90;;;;;;5040248;28;20196;-51
2022/02/28 10:46:42;;;;;;;2.85;2.28;;;3.50;99.90;;;;;;5041420;28;20261;-46
2022/02/28 10:49:17;;;;;;;2.95;2.63;;;3.60;99.90;;;;;;5041099;28;20257;-49
2022/02/28 10:51:52;;;;;;;5.32;2.45;;;3.50;99.90;;;;;;5040415;28;20218;-51
2022/02/28 10:54:25;;;;;;;2.00;1.77;;;3.50;99.90;;;;;;5041105;28;20237;-46
2022/02/28 10:57:06;;;;;;;5.32;2.35;;;3.60;99.90;;;;;;5040838;28;20467;-47
2022/02/28 10:59:41;;;;;;;8.43;2.60;;;3.50;99.90;;;;;;5041229;28;20274;-47
2022/02/28 11:02:10;;;;;;;4.13;2.33;;;3.60;99.90;;;;;;5040833;28;20530;-47
2022/02/28 11:04:39;;;;;;;4.00;2.40;;;3.50;99.90;;;;;;5040689;28;20199;-49
2022/02/28 11:07:12;;;;;;;3.17;2.22;;;3.50;99.90;;;;;;5040626;28;20275;-50
2022/02/28 11:09:41;;;;;;;2.70;2.28;;;3.40;99.90;;;;;;5040654;28;20201;-51
2022/02/28 11:12:19;;;;;;;3.45;2.75;;;3.10;99.90;;;;;;5040615;28;20233;-47
2022/02/28 11:14:47;;;;;;;2.25;1.83;;;3.10;99.90;;;;;;5040659;28;20202;-47
2022/02/28 11:17:19;;;;;;;4.90;2.67;;;3.00;99.90;;;;;;5040592;28;20195;-47
2022/02/28 11:19:48;;;;;;;3.33;2.80;;;3.10;99.90;;;;;;5040426;28;20213;-45
2022/02/28 11:22:19;;;;;;;6.80;2.78;;;3.20;99.90;;;;;;5040341;28;20267;-50
2022/02/28 11:24:47;;;;;;;3.60;2.50;;;3.20;99.90;;;;;;5040260;28;20229;-49
2022/02/28 11:27:15;;;;;;;2.67;2.22;;;3.20;99.90;;;;;;5040948;28;20207;-49
2022/02/28 11:29:54;;;;;;;4.97;2.35;;;3.40;99.90;;;;;;5041150;28;20202;-45
2022/02/28 11:32:23;;;;;;;3.80;2.05;;;3.50;99.90;;;;;;5040178;28;20263;-47
2022/02/28 11:34:51;;;;;;;2.08;1.75;;;3.40;99.90;;;;;;5040605;28;20206;-44
2022/02/28 11:37:23;;;;;;;3.88;1.95;;;3.30;99.90;;;;;;5040265;28;20201;-46
2022/02/28 11:40:05;;;;;;;6.60;2.30;;;3.40;99.90;;;;;;5040092;28;20251;-45
2022/02/28 11:43:10;;;;;;;2.40;2.05;;;3.60;99.90;;;;;;5040117;28;20238;-46
2022/02/28 11:45:51;;;;;;;3.10;1.92;;;3.60;99.90;;;;;;5039852;28;20202;-50
2022/02/28 11:48:34;;;;;;;2.47;2.17;;;3.50;99.90;;;;;;5040042;28;20220;-46
2022/02/28 11:51:19;;;;;;;3.63;1.73;;;3.50;99.90;;;;;;5039828;28;20222;-52
2022/02/28 11:53:51;;;;;;;8.15;3.00;;;3.50;99.90;;;;;;5039758;28;20233;-48
2022/02/28 11:56:18;;;;;;;4.55;2.47;;;3.40;99.90;;;;;;5039899;28;20230;-51
2022/02/28 11:58:55;;;;;;;2.90;1.95;;;3.50;99.90;;;;;;5039486;28;20230;-48
2022/02/28 12:01:42;;;;;;;4.57;3.00;;;3.40;99.90;;;;;;5039597;28;20261;-48
2022/02/28 12:04:15;;;;;;;4.35;3.25;;;3.40;99.90;;;;;;5039328;28;20197;-44
2022/02/28 12:06:59;;;;;;;5.22;2.75;;;3.40;99.90;;;;;;5039846;28;20494;-49
2022/02/28 12:09:38;;;;;;;3.10;2.42;;;3.30;99.90;;;;;;5039459;28;20461;-46
2022/02/28 12:12:33;;;;;;;7.38;2.47;;;3.30;99.90;;;;;;5039572;28;20311;-48
2022/02/28 12:15:01;;;;;;;3.08;2.72;;;3.30;99.90;;;;;;5038930;28;20304;-46
2022/02/28 12:17:34;;;;;;;3.17;2.75;;;3.20;99.90;;;;;;5039283;28;20279;-49
2022/02/28 12:20:14;;;;;;;3.83;2.38;;;3.30;99.90;;;;;;5038831;28;20233;-48
2022/02/28 12:22:58;;;;;;;2.58;2.03;;;3.20;99.90;;;;;;5039522;28;20221;-45
2022/02/28 12:25:41;;;;;;;4.93;2.55;;;3.30;99.90;;;;;;5039218;28;20210;-48
2022/02/28 12:28:28;;;;;;;2.78;2.42;;;3.30;99.00;;;;;;5039387;28;20210;-47
2022/02/28 12:31:02;;;;;;;5.75;2.75;;;3.20;99.90;;;;;;5039057;28;20232;-51
2022/02/28 12:33:33;;;;;;;2.90;2.13;;;3.40;99.90;;;;;;5039446;28;20271;-48
2022/02/28 12:36:09;;;;;;;2.88;2.67;;;3.40;99.90;;;;;;5039090;28;20199;-46
2022/02/28 12:38:46;;;;;;;4.35;3.95;;;3.50;99.60;;;;;;5039705;28;20217;-50
2022/02/28 12:41:17;;;;;;;2.92;2.60;;;3.30;99.90;;;;;;5038821;28;20318;-47
2022/02/28 12:43:46;;;;;;;6.88;2.45;;;3.20;99.90;;;;;;5039341;28;20374;-46
2022/02/28 12:46:23;;;;;;;8.32;3.10;;;3.10;99.90;;;;;;5038881;28;20209;-48
2022/02/28 12:48:50;;;;;;;4.45;3.30;;;3.20;99.90;;;;;;5038916;28;20335;-51